Time;durP1;ratioP1;P1;durP2;ratioP2;P2;SDS_P1;SDS_P2;PMS_P1;PMS_P2;Temp;Humidity;BMP_temperature;BMP_pressure;BME280_temperature;BME280_humidity;BME280_pressure;Samples;Min_cycle;Max_cycle;Signal;HPM_P1;HPM_P2
2023/12/20 00:01:04;;;;;;;17.55;1.88;;;;;;;;;;5053908;28;20503;-73
2023/12/20 00:03:31;;;;;;;13.88;1.45;;;;;;;;;;5037778;28;20564;-73
2023/12/20 00:05:59;;;;;;;14.20;1.95;;;;;;;;;;5046824;28;20045;-73
2023/12/20 00:08:26;;;;;;;16.98;2.20;;;;;;;;;;5040063;28;20052;-73
2023/12/20 00:10:53;;;;;;;14.40;1.70;;;;;;;;;;5037193;28;20047;-73
2023/12/20 00:13:20;;;;;;;11.77;1.52;;;;;;;;;;5030462;28;20539;-73
2023/12/20 00:15:49;;;;;;;18.80;3.05;;;;;;;;;;5047005;28;20049;-73
2023/12/20 00:18:16;;;;;;;17.23;2.38;;;;;;;;;;5047380;28;20057;-73
2023/12/20 00:20:43;;;;;;;12.82;2.13;;;;;;;;;;5045537;28;20057;-73
2023/12/20 00:23:11;;;;;;;18.30;4.00;;;;;;;;;;5052504;28;20413;-74
2023/12/20 00:25:38;;;;;;;19.40;2.25;;;;;;;;;;5049826;28;20044;-74
2023/12/20 00:28:05;;;;;;;18.35;1.75;;;;;;;;;;5045761;28;20086;-74
2023/12/20 00:30:32;;;;;;;16.10;1.80;;;;;;;;;;5048160;28;20060;-74
2023/12/20 00:33:01;;;;;;;17.92;1.80;;;;;;;;;;5046414;28;20365;-74
2023/12/20 00:35:28;;;;;;;20.83;2.22;;;;;;;;;;5045935;28;20088;-74
2023/12/20 00:37:55;;;;;;;23.02;2.17;;;;;;;;;;5041081;28;20409;-73
2023/12/20 00:40:23;;;;;;;20.23;1.60;;;;;;;;;;5049452;28;20042;-73
2023/12/20 00:42:50;;;;;;;20.73;2.25;;;;;;;;;;5051953;28;20060;-74
2023/12/20 00:45:17;;;;;;;17.52;2.60;;;;;;;;;;5049594;28;20049;-74
2023/12/20 00:47:44;;;;;;;19.88;2.15;;;;;;;;;;5050199;28;20564;-74
2023/12/20 00:50:13;;;;;;;23.40;2.83;;;;;;;;;;5051408;28;20048;-73
2023/12/20 00:52:40;;;;;;;17.67;2.63;;;;;;;;;;5047700;28;20049;-71
2023/12/20 00:55:08;;;;;;;15.90;1.90;;;;;;;;;;5053856;28;20049;-72
2023/12/20 00:57:35;;;;;;;17.48;2.97;;;;;;;;;;5050197;28;20381;-72
2023/12/20 01:00:03;;;;;;;14.88;1.85;;;;;;;;;;5045455;28;20060;-72
2023/12/20 01:02:30;;;;;;;21.00;2.80;;;;;;;;;;5048201;28;20060;-71
2023/12/20 01:04:57;;;;;;;20.98;2.08;;;;;;;;;;5046206;28;20057;-71
2023/12/20 01:07:26;;;;;;;17.15;1.98;;;;;;;;;;5048052;28;20075;-72
2023/12/20 01:09:56;;;;;;;12.30;1.63;;;;;;;;;;5049229;28;20080;-73
2023/12/20 01:12:23;;;;;;;17.05;1.58;;;;;;;;;;5039721;28;20041;-73
2023/12/20 01:14:51;;;;;;;22.80;1.92;;;;;;;;;;5033774;28;20053;-73
2023/12/20 01:17:18;;;;;;;20.02;1.95;;;;;;;;;;5036852;28;20056;-73
2023/12/20 01:19:45;;;;;;;26.40;2.50;;;;;;;;;;5036932;28;20063;-73
2023/12/20 01:22:12;;;;;;;16.67;1.98;;;;;;;;;;5032860;28;20507;-73
2023/12/20 01:24:41;;;;;;;25.52;2.58;;;;;;;;;;5036699;28;20128;-73
2023/12/20 01:27:09;;;;;;;22.10;2.53;;;;;;;;;;5027543;28;20127;-73
2023/12/20 01:29:37;;;;;;;30.60;2.85;;;;;;;;;;5030828;28;20067;-73
2023/12/20 01:32:04;;;;;;;30.55;3.42;;;;;;;;;;5042833;28;20510;-73
2023/12/20 01:34:31;;;;;;;41.78;3.47;;;;;;;;;;5050455;28;20135;-73
2023/12/20 01:36:58;;;;;;;24.98;2.17;;;;;;;;;;5051796;28;20045;-73
2023/12/20 01:39:26;;;;;;;31.48;3.25;;;;;;;;;;5029168;28;20064;-73
2023/12/20 01:41:54;;;;;;;19.90;2.25;;;;;;;;;;5033615;28;20098;-74
2023/12/20 01:44:21;;;;;;;25.70;2.20;;;;;;;;;;5022183;28;20548;-73
2023/12/20 01:46:49;;;;;;;38.05;3.50;;;;;;;;;;5032634;28;20049;-74
2023/12/20 01:49:16;;;;;;;34.35;3.30;;;;;;;;;;5033684;28;20144;-73
2023/12/20 01:51:44;;;;;;;27.38;3.25;;;;;;;;;;5030448;28;20408;-74
2023/12/20 01:54:11;;;;;;;29.45;3.30;;;;;;;;;;5028885;28;20056;-74
2023/12/20 01:56:39;;;;;;;35.35;3.55;;;;;;;;;;5028444;28;20060;-74
2023/12/20 01:59:09;;;;;;;26.92;4.45;;;;;;;;;;5029691;28;20460;-74
2023/12/20 02:04:37;;;;;;;38.25;4.38;;;;;;;;;;5551559;22;20069;-69
2023/12/20 02:07:05;;;;;;;22.60;2.55;;;;;;;;;;4944304;28;20165;-68
2023/12/20 02:09:32;;;;;;;40.47;3.42;;;;;;;;;;5539234;23;20062;-74
2023/12/20 02:12:00;;;;;;;33.83;3.13;;;;;;;;;;4970602;28;20050;-74
2023/12/20 02:14:29;;;;;;;26.65;2.85;;;;;;;;;;4976524;28;20119;-74
2023/12/20 02:16:56;;;;;;;29.98;3.38;;;;;;;;;;4982184;28;20069;-74
2023/12/20 02:19:24;;;;;;;26.15;4.35;;;;;;;;;;4982816;28;20054;-74
2023/12/20 02:22:06;;;;;;;30.50;3.58;;;;;;;;;;4979559;28;20097;-74
2023/12/20 02:24:33;;;;;;;27.75;3.08;;;;;;;;;;4974947;28;20049;-74
2023/12/20 02:27:00;;;;;;;26.15;3.42;;;;;;;;;;4970515;28;20050;-74
2023/12/20 02:29:28;;;;;;;24.98;3.50;;;;;;;;;;4990654;28;20046;-74
2023/12/20 02:31:55;;;;;;;23.65;3.17;;;;;;;;;;4978951;28;20050;-74
2023/12/20 02:34:22;;;;;;;44.47;4.03;;;;;;;;;;4978213;28;20420;-74
2023/12/20 02:36:50;;;;;;;30.67;2.75;;;;;;;;;;4977466;28;20050;-74
2023/12/20 02:39:18;;;;;;;33.55;4.18;;;;;;;;;;4990582;28;20054;-74
2023/12/20 02:41:45;;;;;;;26.23;2.90;;;;;;;;;;4975257;28;20046;-73
2023/12/20 02:44:13;;;;;;;45.50;5.03;;;;;;;;;;4976533;28;20058;-73
2023/12/20 02:46:40;;;;;;;25.48;2.83;;;;;;;;;;4975175;28;20061;-73
2023/12/20 02:49:07;;;;;;;29.73;2.72;;;;;;;;;;4977816;28;20050;-73
2023/12/20 02:51:38;;;;;;;33.15;3.25;;;;;;;;;;4977560;28;20069;-73
2023/12/20 02:54:05;;;;;;;35.78;3.75;;;;;;;;;;4991230;28;20057;-73
2023/12/20 02:56:34;;;;;;;32.35;3.65;;;;;;;;;;4983751;28;20050;-73
2023/12/20 02:59:01;;;;;;;25.23;3.28;;;;;;;;;;4977604;28;20448;-73
2023/12/20 03:01:29;;;;;;;26.98;3.10;;;;;;;;;;4991225;28;20047;-73
2023/12/20 03:03:56;;;;;;;24.25;3.58;;;;;;;;;;4981729;28;20108;-73
2023/12/20 03:06:23;;;;;;;43.00;3.20;;;;;;;;;;4975954;28;20061;-73
2023/12/20 03:08:50;;;;;;;37.92;3.65;;;;;;;;;;4990598;28;20405;-73
2023/12/20 03:11:18;;;;;;;26.40;2.50;;;;;;;;;;4975192;28;20073;-73
2023/12/20 03:13:46;;;;;;;25.27;2.80;;;;;;;;;;4977874;28;20513;-73
2023/12/20 03:16:16;;;;;;;29.58;2.60;;;;;;;;;;4980762;28;20050;-73
2023/12/20 03:18:43;;;;;;;25.70;2.90;;;;;;;;;;4976559;28;20124;-74
2023/12/20 03:21:10;;;;;;;28.08;3.65;;;;;;;;;;4980109;28;20051;-73
2023/12/20 03:23:38;;;;;;;24.77;3.85;;;;;;;;;;4978055;28;20046;-73
2023/12/20 03:26:08;;;;;;;28.27;3.55;;;;;;;;;;4976188;28;20050;-74
2023/12/20 03:28:35;;;;;;;19.80;2.78;;;;;;;;;;4979653;28;20054;-74
2023/12/20 03:31:04;;;;;;;35.75;5.47;;;;;;;;;;4979343;28;20054;-74
2023/12/20 03:33:31;;;;;;;23.95;4.15;;;;;;;;;;4977705;28;20054;-74
2023/12/20 03:35:59;;;;;;;23.23;2.72;;;;;;;;;;4975455;28;20113;-74
2023/12/20 03:38:26;;;;;;;26.10;2.80;;;;;;;;;;4976030;28;20046;-73
2023/12/20 03:40:53;;;;;;;33.17;3.35;;;;;;;;;;4975373;28;20069;-74
2023/12/20 03:43:20;;;;;;;30.90;3.47;;;;;;;;;;4972564;28;20053;-73
2023/12/20 03:45:48;;;;;;;27.15;3.17;;;;;;;;;;4988699;28;20080;-74
2023/12/20 03:48:16;;;;;;;27.70;2.47;;;;;;;;;;4973837;28;20489;-73
2023/12/20 03:50:43;;;;;;;23.67;3.17;;;;;;;;;;4981980;28;20412;-74
2023/12/20 03:53:11;;;;;;;34.92;3.03;;;;;;;;;;4988998;28;20046;-74
2023/12/20 03:55:38;;;;;;;24.40;2.67;;;;;;;;;;4978914;28;20085;-74
2023/12/20 03:58:05;;;;;;;24.60;2.50;;;;;;;;;;4976268;28;20062;-74
2023/12/20 04:00:32;;;;;;;27.58;2.70;;;;;;;;;;4983552;28;20379;-73
2023/12/20 04:03:00;;;;;;;27.95;3.20;;;;;;;;;;4979551;28;20046;-74
2023/12/20 04:05:28;;;;;;;27.00;2.67;;;;;;;;;;4980155;28;20394;-73
2023/12/20 04:07:55;;;;;;;39.30;3.70;;;;;;;;;;4977692;28;20058;-74
2023/12/20 04:10:23;;;;;;;30.85;2.97;;;;;;;;;;4979907;28;20069;-73
2023/12/20 04:12:50;;;;;;;20.90;3.13;;;;;;;;;;4974642;28;20396;-74
2023/12/20 04:15:17;;;;;;;22.98;2.70;;;;;;;;;;4977396;28;20051;-74
2023/12/20 04:17:45;;;;;;;33.63;2.80;;;;;;;;;;4980280;28;20142;-73
2023/12/20 04:20:12;;;;;;;21.20;2.65;;;;;;;;;;4976323;28;20058;-73
2023/12/20 04:22:42;;;;;;;21.85;2.80;;;;;;;;;;4978064;28;20061;-73
2023/12/20 04:25:09;;;;;;;20.02;2.83;;;;;;;;;;4972396;28;20496;-71
2023/12/20 04:27:37;;;;;;;31.88;3.05;;;;;;;;;;4989331;28;20128;-71
2023/12/20 04:30:04;;;;;;;15.75;2.80;;;;;;;;;;4977530;28;20077;-70
2023/12/20 04:32:32;;;;;;;32.85;3.00;;;;;;;;;;4977985;28;20046;-71
2023/12/20 04:34:59;;;;;;;30.75;3.25;;;;;;;;;;4973671;28;20489;-70
2023/12/20 04:37:26;;;;;;;25.15;3.28;;;;;;;;;;4974670;28;20046;-70
2023/12/20 04:39:55;;;;;;;22.45;3.03;;;;;;;;;;4983219;28;20042;-70
2023/12/20 04:42:23;;;;;;;32.08;4.30;;;;;;;;;;4979531;28;20050;-70
2023/12/20 04:44:50;;;;;;;26.35;3.25;;;;;;;;;;4979835;28;20045;-71
2023/12/20 04:47:17;;;;;;;35.55;4.38;;;;;;;;;;4984999;28;20125;-70
2023/12/20 04:49:44;;;;;;;34.92;3.38;;;;;;;;;;4977978;28;20516;-70
2023/12/20 04:52:12;;;;;;;23.45;2.83;;;;;;;;;;4976309;28;20054;-70
2023/12/20 04:54:39;;;;;;;25.90;2.92;;;;;;;;;;4975461;28;20042;-71
2023/12/20 04:57:08;;;;;;;30.35;3.08;;;;;;;;;;4974011;28;20054;-71
2023/12/20 04:59:35;;;;;;;32.45;3.50;;;;;;;;;;4974840;28;20418;-71
2023/12/20 05:02:02;;;;;;;26.73;3.00;;;;;;;;;;4979797;28;20134;-70
2023/12/20 05:04:29;;;;;;;25.10;3.45;;;;;;;;;;4974706;28;20053;-71
2023/12/20 05:06:57;;;;;;;23.98;3.40;;;;;;;;;;4975437;28;20416;-70
2023/12/20 05:09:24;;;;;;;32.22;3.97;;;;;;;;;;4988506;28;20057;-70
2023/12/20 05:11:51;;;;;;;28.35;3.78;;;;;;;;;;4974064;28;20057;-70
2023/12/20 05:14:20;;;;;;;34.53;4.40;;;;;;;;;;4976037;28;20058;-70
2023/12/20 05:16:47;;;;;;;30.88;4.50;;;;;;;;;;4974959;28;20069;-70
2023/12/20 05:19:14;;;;;;;27.83;3.22;;;;;;;;;;4988057;28;20058;-71
2023/12/20 05:21:41;;;;;;;33.80;3.22;;;;;;;;;;4976816;28;20073;-71
2023/12/20 05:24:09;;;;;;;25.33;3.33;;;;;;;;;;4982677;28;20077;-70
2023/12/20 05:26:36;;;;;;;36.03;3.67;;;;;;;;;;4981695;28;20061;-70
2023/12/20 05:29:03;;;;;;;30.20;2.80;;;;;;;;;;4973511;28;20054;-72
2023/12/20 05:31:32;;;;;;;23.73;2.80;;;;;;;;;;4989317;28;20413;-70
2023/12/20 05:34:00;;;;;;;27.50;2.75;;;;;;;;;;4979421;28;20038;-74
2023/12/20 05:36:28;;;;;;;29.13;3.72;;;;;;;;;;4974817;28;20408;-75
2023/12/20 05:38:55;;;;;;;21.48;3.03;;;;;;;;;;4987357;28;20524;-74
2023/12/20 05:41:22;;;;;;;28.08;3.05;;;;;;;;;;4987510;28;20061;-74
2023/12/20 05:43:50;;;;;;;26.83;3.55;;;;;;;;;;4970564;28;20532;-70
2023/12/20 05:46:17;;;;;;;27.98;3.47;;;;;;;;;;4990348;28;20051;-73
2023/12/20 05:48:46;;;;;;;22.10;3.03;;;;;;;;;;4978510;28;20470;-70
2023/12/20 05:51:13;;;;;;;17.42;2.45;;;;;;;;;;4981089;28;20058;-70
2023/12/20 05:53:41;;;;;;;29.08;3.33;;;;;;;;;;4991697;28;20404;-71
2023/12/20 05:56:08;;;;;;;29.90;3.00;;;;;;;;;;4979665;28;20136;-70
2023/12/20 05:58:35;;;;;;;22.60;2.90;;;;;;;;;;4979370;28;20046;-70
2023/12/20 06:01:05;;;;;;;21.80;3.05;;;;;;;;;;4979425;28;20046;-70
2023/12/20 06:03:32;;;;;;;25.08;3.08;;;;;;;;;;4979080;28;20125;-70
2023/12/20 06:06:01;;;;;;;31.48;2.72;;;;;;;;;;4992910;28;20047;-70
2023/12/20 06:08:29;;;;;;;19.08;3.03;;;;;;;;;;4979211;28;20152;-72
2023/12/20 06:10:56;;;;;;;17.17;2.65;;;;;;;;;;4975517;28;20070;-72
2023/12/20 06:13:24;;;;;;;31.13;3.85;;;;;;;;;;4971870;28;20043;-70
2023/12/20 06:15:51;;;;;;;29.67;3.40;;;;;;;;;;4978322;28;20088;-70
2023/12/20 06:18:18;;;;;;;21.92;2.78;;;;;;;;;;4972802;28;20046;-70
2023/12/20 06:20:45;;;;;;;26.65;3.58;;;;;;;;;;4979048;28;20133;-72
2023/12/20 06:23:14;;;;;;;35.72;3.67;;;;;;;;;;4992043;28;20063;-71
2023/12/20 06:25:41;;;;;;;23.80;4.32;;;;;;;;;;4977019;28;20054;-70
2023/12/20 06:28:10;;;;;;;26.88;3.70;;;;;;;;;;4975112;28;20054;-70
2023/12/20 06:30:37;;;;;;;29.52;2.88;;;;;;;;;;4972006;28;20077;-71
2023/12/20 06:33:06;;;;;;;20.50;3.72;;;;;;;;;;4974521;28;20058;-70
2023/12/20 06:35:33;;;;;;;22.23;3.45;;;;;;;;;;4981252;28;20046;-70
2023/12/20 06:38:01;;;;;;;30.55;4.40;;;;;;;;;;4977879;28;20137;-71
2023/12/20 06:40:30;;;;;;;31.70;4.47;;;;;;;;;;4976128;28;20046;-70
2023/12/20 06:42:57;;;;;;;31.20;3.25;;;;;;;;;;4978460;28;20070;-69
2023/12/20 06:45:24;;;;;;;31.52;4.53;;;;;;;;;;4975069;28;20052;-72
2023/12/20 06:47:51;;;;;;;27.90;3.33;;;;;;;;;;4989459;28;20065;-72
2023/12/20 06:50:19;;;;;;;19.42;3.10;;;;;;;;;;4976373;28;20050;-70
2023/12/20 06:52:46;;;;;;;34.70;4.03;;;;;;;;;;4977524;28;20511;-71
2023/12/20 06:55:13;;;;;;;30.05;3.85;;;;;;;;;;4973619;28;20797;-71
2023/12/20 06:57:42;;;;;;;24.00;3.45;;;;;;;;;;4971213;28;20061;-71
2023/12/20 07:00:10;;;;;;;31.48;3.25;;;;;;;;;;4974155;28;20129;-71
2023/12/20 07:02:37;;;;;;;28.85;2.88;;;;;;;;;;4976745;28;20042;-71
2023/12/20 07:05:05;;;;;;;19.60;2.70;;;;;;;;;;4978792;28;20566;-75
2023/12/20 07:07:32;;;;;;;26.33;3.92;;;;;;;;;;4990818;28;20042;-74
2023/12/20 07:09:59;;;;;;;26.80;3.10;;;;;;;;;;4978548;28;20078;-74
2023/12/20 07:12:27;;;;;;;25.30;3.58;;;;;;;;;;4990567;28;20137;-74
2023/12/20 07:14:55;;;;;;;23.58;2.83;;;;;;;;;;4979208;28;20050;-74
2023/12/20 07:17:23;;;;;;;18.63;3.20;;;;;;;;;;4990784;28;20053;-74
2023/12/20 07:19:50;;;;;;;23.77;3.13;;;;;;;;;;4975090;28;20046;-74
2023/12/20 07:22:17;;;;;;;21.38;2.33;;;;;;;;;;4990414;28;20054;-75
2023/12/20 07:24:45;;;;;;;37.28;4.25;;;;;;;;;;4991231;28;20038;-75
2023/12/20 07:27:13;;;;;;;31.05;3.45;;;;;;;;;;4977963;28;20062;-74
2023/12/20 07:29:40;;;;;;;32.35;4.07;;;;;;;;;;4978395;28;20054;-74
2023/12/20 07:32:09;;;;;;;31.55;3.08;;;;;;;;;;4990305;28;20046;-74
2023/12/20 07:34:36;;;;;;;19.27;2.65;;;;;;;;;;4990223;28;20046;-74
2023/12/20 07:37:03;;;;;;;29.40;3.72;;;;;;;;;;4990109;28;20042;-74
2023/12/20 07:39:31;;;;;;;22.77;3.10;;;;;;;;;;4989883;28;20129;-74
2023/12/20 07:41:58;;;;;;;24.45;3.13;;;;;;;;;;4973021;28;20468;-74
2023/12/20 07:44:25;;;;;;;28.02;3.10;;;;;;;;;;4990177;28;20592;-74
2023/12/20 07:46:52;;;;;;;27.42;3.22;;;;;;;;;;4990147;28;20054;-75
2023/12/20 07:49:21;;;;;;;31.05;3.70;;;;;;;;;;4990539;28;20054;-74
2023/12/20 07:51:49;;;;;;;22.05;3.95;;;;;;;;;;4990067;28;20053;-75
2023/12/20 07:54:17;;;;;;;20.33;2.50;;;;;;;;;;4977592;28;20094;-74
2023/12/20 07:56:44;;;;;;;15.07;1.77;;;;;;;;;;4988899;28;20524;-74
2023/12/20 07:59:11;;;;;;;18.70;1.95;;;;;;;;;;4981321;28;20050;-74
2023/12/20 08:01:39;;;;;;;14.70;2.05;;;;;;;;;;4979235;28;20046;-75
2023/12/20 08:04:06;;;;;;;13.30;1.58;;;;;;;;;;4989160;28;20051;-74
2023/12/20 08:06:35;;;;;;;12.77;1.60;;;;;;;;;;4976509;28;20057;-74
2023/12/20 08:09:02;;;;;;;16.95;2.22;;;;;;;;;;4989348;28;20054;-74
2023/12/20 08:11:30;;;;;;;22.05;2.53;;;;;;;;;;4975602;28;20501;-75
2023/12/20 08:13:59;;;;;;;24.75;2.95;;;;;;;;;;4989470;28;20437;-71
2023/12/20 08:16:26;;;;;;;31.02;3.95;;;;;;;;;;4979674;28;20050;-71
2023/12/20 08:18:53;;;;;;;27.52;4.03;;;;;;;;;;4974731;28;20086;-71
2023/12/20 08:21:22;;;;;;;24.83;2.65;;;;;;;;;;4975723;28;20126;-70
2023/12/20 08:23:52;;;;;;;29.45;4.13;;;;;;;;;;4981146;28;20130;-72
2023/12/20 08:26:22;;;;;;;24.63;2.92;;;;;;;;;;4984160;28;20548;-71
2023/12/20 08:28:49;;;;;;;27.63;4.43;;;;;;;;;;4972237;28;20074;-71
2023/12/20 08:31:17;;;;;;;37.38;3.88;;;;;;;;;;4985862;28;20054;-70
2023/12/20 08:33:44;;;;;;;22.98;3.42;;;;;;;;;;4977278;28;20054;-70
2023/12/20 08:36:12;;;;;;;33.10;3.97;;;;;;;;;;4974847;28;20054;-70
2023/12/20 08:38:39;;;;;;;21.95;3.92;;;;;;;;;;4981050;28;20057;-71
2023/12/20 08:41:08;;;;;;;21.80;3.10;;;;;;;;;;4982182;28;20054;-72
2023/12/20 08:43:36;;;;;;;21.60;3.60;;;;;;;;;;4978856;28;20517;-73
2023/12/20 08:46:03;;;;;;;14.60;1.83;;;;;;;;;;4976994;28;20042;-73
2023/12/20 08:48:30;;;;;;;6.18;0.70;;;;;;;;;;4976785;28;20493;-72
2023/12/20 08:50:57;;;;;;;11.50;1.25;;;;;;;;;;4980278;28;20054;-71
2023/12/20 08:53:25;;;;;;;9.80;1.83;;;;;;;;;;4973209;28;20053;-71
2023/12/20 08:55:52;;;;;;;18.33;4.75;;;;;;;;;;4976753;28;20069;-71
2023/12/20 08:58:20;;;;;;;21.48;6.03;;;;;;;;;;4971871;28;20413;-71
2023/12/20 09:00:48;;;;;;;21.42;4.30;;;;;;;;;;4976676;28;20054;-71
2023/12/20 09:03:15;;;;;;;15.15;3.03;;;;;;;;;;4975865;28;20050;-71
2023/12/20 09:05:42;;;;;;;5.30;0.85;;;;;;;;;;4975824;28;20067;-72
2023/12/20 09:08:10;;;;;;;12.75;1.52;;;;;;;;;;4973557;28;20050;-72
2023/12/20 09:10:37;;;;;;;11.57;1.35;;;;;;;;;;4968799;28;20088;-72
2023/12/20 09:13:05;;;;;;;15.27;1.17;;;;;;;;;;4969616;28;20051;-72
2023/12/20 09:15:34;;;;;;;13.52;1.20;;;;;;;;;;4966714;28;20047;-72
2023/12/20 09:18:01;;;;;;;17.33;1.42;;;;;;;;;;4969610;28;20046;-71
2023/12/20 09:20:28;;;;;;;15.65;1.27;;;;;;;;;;4966245;28;20712;-71
2023/12/20 09:22:56;;;;;;;20.23;1.90;;;;;;;;;;4966643;28;20069;-71
2023/12/20 09:25:23;;;;;;;32.33;1.88;;;;;;;;;;4967021;28;20549;-72
2023/12/20 09:27:50;;;;;;;20.60;1.80;;;;;;;;;;4968812;28;20509;-72
2023/12/20 09:30:18;;;;;;;13.32;1.55;;;;;;;;;;4970446;28;20101;-72
2023/12/20 09:32:46;;;;;;;18.27;1.60;;;;;;;;;;4969170;28;20043;-72
2023/12/20 09:35:14;;;;;;;10.77;1.65;;;;;;;;;;4962617;28;20055;-72
2023/12/20 09:37:44;;;;;;;9.85;1.20;;;;;;;;;;4969550;28;20082;-73
2023/12/20 09:40:14;;;;;;;9.60;1.33;;;;;;;;;;4968760;28;20065;-72
2023/12/20 09:42:50;;;;;;;8.10;1.13;;;;;;;;;;4966404;28;20222;-72
2023/12/20 09:45:18;;;;;;;8.35;0.88;;;;;;;;;;4967119;28;20545;-72
2023/12/20 09:47:47;;;;;;;8.60;1.13;;;;;;;;;;4967803;28;20047;-72
2023/12/20 09:50:15;;;;;;;15.50;1.40;;;;;;;;;;4966274;28;20401;-72
2023/12/20 09:52:43;;;;;;;6.70;0.88;;;;;;;;;;4967093;28;20081;-72
2023/12/20 09:55:10;;;;;;;14.50;1.30;;;;;;;;;;4968862;28;20050;-72
2023/12/20 09:57:37;;;;;;;18.48;1.80;;;;;;;;;;4967436;28;20137;-72
2023/12/20 10:00:06;;;;;;;10.55;1.30;;;;;;;;;;4967580;28;20057;-72
2023/12/20 10:02:34;;;;;;;12.95;1.60;;;;;;;;;;4965909;28;20066;-72
2023/12/20 10:05:03;;;;;;;12.82;1.70;;;;;;;;;;4965376;28;20054;-72
2023/12/20 10:07:30;;;;;;;11.18;1.83;;;;;;;;;;4967376;28;20414;-72
2023/12/20 10:09:58;;;;;;;10.35;1.50;;;;;;;;;;4967146;28;20051;-72
2023/12/20 10:12:25;;;;;;;12.68;1.80;;;;;;;;;;4966967;28;20085;-73
2023/12/20 10:14:52;;;;;;;18.58;2.22;;;;;;;;;;4962765;28;20054;-73
2023/12/20 10:17:20;;;;;;;22.45;5.10;;;;;;;;;;4958226;28;20073;-73
2023/12/20 10:19:47;;;;;;;17.10;3.10;;;;;;;;;;4965449;28;20039;-73
2023/12/20 10:22:16;;;;;;;24.40;3.00;;;;;;;;;;4965400;28;20501;-73
2023/12/20 10:24:44;;;;;;;15.75;1.60;;;;;;;;;;4967155;28;20490;-73
2023/12/20 10:27:11;;;;;;;12.95;1.70;;;;;;;;;;4963560;28;20108;-73
2023/12/20 10:29:39;;;;;;;18.65;1.40;;;;;;;;;;4963405;28;20363;-73
2023/12/20 10:32:25;;;;;;;16.58;2.22;;;;;;;;;;4970615;28;20468;-72
2023/12/20 10:34:52;;;;;;;13.77;2.03;;;;;;;;;;4971401;28;20051;-71
2023/12/20 10:37:21;;;;;;;8.68;2.20;;;;;;;;;;4970584;28;20050;-72
2023/12/20 10:39:51;;;;;;;21.10;2.78;;;;;;;;;;4969475;28;20045;-72
2023/12/20 10:42:19;;;;;;;16.88;2.83;;;;;;;;;;4970900;28;20054;-71
2023/12/20 10:44:47;;;;;;;14.35;2.15;;;;;;;;;;4971750;28;20046;-72
2023/12/20 10:47:15;;;;;;;17.50;1.83;;;;;;;;;;4971955;28;20486;-72
2023/12/20 10:49:44;;;;;;;13.98;1.55;;;;;;;;;;4970420;28;20540;-71
2023/12/20 10:52:12;;;;;;;19.02;1.42;;;;;;;;;;4971857;28;20042;-72
2023/12/20 10:54:41;;;;;;;18.27;1.58;;;;;;;;;;4972448;28;20057;-71
2023/12/20 10:57:09;;;;;;;11.00;1.70;;;;;;;;;;4971464;28;20054;-72
2023/12/20 10:59:38;;;;;;;12.43;1.30;;;;;;;;;;4971501;28;20146;-71
2023/12/20 11:02:06;;;;;;;12.73;2.00;;;;;;;;;;4970228;28;20065;-72
2023/12/20 11:04:38;;;;;;;14.82;2.42;;;;;;;;;;4971168;28;20059;-72
2023/12/20 11:07:15;;;;;;;17.20;1.65;;;;;;;;;;4970203;28;20085;-72
2023/12/20 11:09:47;;;;;;;12.95;1.77;;;;;;;;;;4973046;28;20047;-71
2023/12/20 11:12:17;;;;;;;17.33;2.15;;;;;;;;;;4972997;28;20066;-71
2023/12/20 11:14:47;;;;;;;8.68;1.27;;;;;;;;;;4991846;28;20125;-71
2023/12/20 11:17:16;;;;;;;13.32;1.70;;;;;;;;;;4975327;28;20055;-72
2023/12/20 11:20:03;;;;;;;15.88;2.13;;;;;;;;;;4980223;28;20747;-72
2023/12/20 11:22:32;;;;;;;13.25;1.42;;;;;;;;;;4980498;28;20050;-72
2023/12/20 11:25:04;;;;;;;14.35;2.17;;;;;;;;;;4979195;28;20401;-71
2023/12/20 11:27:32;;;;;;;13.25;1.73;;;;;;;;;;4990758;28;20057;-72
2023/12/20 11:30:00;;;;;;;12.70;1.75;;;;;;;;;;4978505;28;20108;-72
2023/12/20 11:32:31;;;;;;;13.63;1.48;;;;;;;;;;4977270;28;20050;-72
2023/12/20 11:34:59;;;;;;;17.48;2.15;;;;;;;;;;4988465;28;20068;-72
2023/12/20 11:37:31;;;;;;;13.57;1.13;;;;;;;;;;4976113;28;20054;-71
2023/12/20 11:40:04;;;;;;;13.40;2.25;;;;;;;;;;4990299;28;20149;-72
2023/12/20 11:42:34;;;;;;;10.13;1.23;;;;;;;;;;4971697;28;20144;-71
2023/12/20 11:45:04;;;;;;;16.85;2.13;;;;;;;;;;4975865;28;20054;-70
2023/12/20 11:47:32;;;;;;;14.25;1.95;;;;;;;;;;4979072;28;20069;-70
2023/12/20 11:50:00;;;;;;;13.25;1.58;;;;;;;;;;4984198;28;20157;-70
2023/12/20 11:52:27;;;;;;;16.00;1.65;;;;;;;;;;4988522;28;20515;-70
2023/12/20 11:54:55;;;;;;;17.77;2.30;;;;;;;;;;4982494;28;20046;-70
2023/12/20 11:57:23;;;;;;;11.55;1.42;;;;;;;;;;4983769;28;20054;-70
2023/12/20 11:59:51;;;;;;;25.20;2.83;;;;;;;;;;4980886;28;20054;-69
2023/12/20 12:02:18;;;;;;;16.67;2.38;;;;;;;;;;4989098;28;20057;-69
2023/12/20 12:04:45;;;;;;;14.93;1.60;;;;;;;;;;4990592;28;20069;-70
2023/12/20 12:07:12;;;;;;;16.23;2.95;;;;;;;;;;4989284;28;20070;-70
2023/12/20 12:09:40;;;;;;;12.90;1.67;;;;;;;;;;4990022;28;20057;-69
2023/12/20 12:12:08;;;;;;;14.90;1.45;;;;;;;;;;4990198;28;20133;-69
2023/12/20 12:14:37;;;;;;;19.83;1.90;;;;;;;;;;4990484;28;20070;-68
2023/12/20 12:17:04;;;;;;;12.63;2.05;;;;;;;;;;4988669;28;20102;-69
2023/12/20 12:19:35;;;;;;;21.58;1.75;;;;;;;;;;4977066;28;20054;-69
2023/12/20 12:22:07;;;;;;;14.93;1.52;;;;;;;;;;4988474;28;20046;-69
2023/12/20 12:24:34;;;;;;;17.27;2.47;;;;;;;;;;4983952;28;20054;-68
2023/12/20 12:27:01;;;;;;;15.90;2.00;;;;;;;;;;4974622;28;20465;-68
2023/12/20 12:29:29;;;;;;;8.70;1.00;;;;;;;;;;4975021;28;20050;-68
2023/12/20 12:31:57;;;;;;;9.13;1.40;;;;;;;;;;4990453;28;20493;-68
2023/12/20 12:34:26;;;;;;;14.60;1.95;;;;;;;;;;4989673;28;20065;-68
2023/12/20 12:36:54;;;;;;;16.15;1.60;;;;;;;;;;4989468;28;20104;-68
2023/12/20 12:39:21;;;;;;;12.23;1.23;;;;;;;;;;4989499;28;20042;-69
2023/12/20 12:41:48;;;;;;;12.60;1.40;;;;;;;;;;4989001;28;20417;-67
2023/12/20 12:44:16;;;;;;;6.75;0.98;;;;;;;;;;4989029;28;20057;-69
2023/12/20 12:46:43;;;;;;;14.38;1.77;;;;;;;;;;4988426;28;20050;-69
2023/12/20 12:49:12;;;;;;;10.85;1.13;;;;;;;;;;4989663;28;20060;-70
2023/12/20 12:51:39;;;;;;;12.85;1.65;;;;;;;;;;4976133;28;20050;-70
2023/12/20 12:54:06;;;;;;;10.60;1.10;;;;;;;;;;4975486;28;20054;-69
2023/12/20 12:56:34;;;;;;;7.13;0.93;;;;;;;;;;4978227;28;20057;-69
2023/12/20 12:59:01;;;;;;;5.18;0.85;;;;;;;;;;4989969;28;20160;-69
2023/12/20 13:01:28;;;;;;;9.75;1.20;;;;;;;;;;4989234;28;20054;-69
2023/12/20 13:03:55;;;;;;;7.40;0.90;;;;;;;;;;4989108;28;20512;-70
2023/12/20 13:06:23;;;;;;;5.95;0.85;;;;;;;;;;4973764;28;20050;-70
2023/12/20 13:08:51;;;;;;;10.05;0.93;;;;;;;;;;4974603;28;20456;-69
2023/12/20 13:11:18;;;;;;;6.85;0.85;;;;;;;;;;4988560;28;20069;-69
2023/12/20 13:13:45;;;;;;;9.35;2.05;;;;;;;;;;4987676;28;20057;-70
2023/12/20 13:16:13;;;;;;;7.03;0.68;;;;;;;;;;4987734;28;20058;-70
2023/12/20 13:18:42;;;;;;;4.97;0.70;;;;;;;;;;4976506;28;20110;-69
2023/12/20 13:21:09;;;;;;;8.48;0.90;;;;;;;;;;4989230;28;20559;-70
2023/12/20 13:23:38;;;;;;;8.23;0.73;;;;;;;;;;4989245;28;20493;-70
2023/12/20 13:26:05;;;;;;;11.00;1.17;;;;;;;;;;4979678;28;20536;-70
2023/12/20 13:28:32;;;;;;;3.60;0.70;;;;;;;;;;4976529;28;20666;-70
2023/12/20 13:31:00;;;;;;;7.80;0.98;;;;;;;;;;4987771;28;20079;-70
2023/12/20 13:33:27;;;;;;;5.43;1.23;;;;;;;;;;4981801;28;20058;-70
2023/12/20 13:35:55;;;;;;;10.43;1.15;;;;;;;;;;4989371;28;20400;-69
2023/12/20 13:38:23;;;;;;;6.70;0.70;;;;;;;;;;4976765;28;20322;-70
2023/12/20 13:40:51;;;;;;;10.48;1.40;;;;;;;;;;4980536;28;20096;-70
2023/12/20 13:43:20;;;;;;;10.13;1.08;;;;;;;;;;4984692;28;20049;-70
2023/12/20 13:45:48;;;;;;;9.30;1.08;;;;;;;;;;4974480;28;20137;-70
2023/12/20 13:48:15;;;;;;;6.60;0.85;;;;;;;;;;4972956;28;20489;-70
2023/12/20 13:50:42;;;;;;;9.23;0.90;;;;;;;;;;4974163;28;20062;-70
2023/12/20 13:53:09;;;;;;;12.48;1.08;;;;;;;;;;4987704;28;20054;-69
2023/12/20 13:55:37;;;;;;;11.88;1.10;;;;;;;;;;4971629;28;20058;-69
2023/12/20 13:58:05;;;;;;;9.27;1.10;;;;;;;;;;4984464;28;20046;-71
2023/12/20 14:00:33;;;;;;;15.23;1.33;;;;;;;;;;4965955;28;20077;-69
2023/12/20 14:03:00;;;;;;;11.55;1.42;;;;;;;;;;4978349;28;20050;-74
2023/12/20 14:05:28;;;;;;;15.30;1.00;;;;;;;;;;4973606;28;20061;-73
2023/12/20 14:07:57;;;;;;;5.80;0.77;;;;;;;;;;4982588;28;20093;-73
2023/12/20 14:10:26;;;;;;;15.43;1.48;;;;;;;;;;4981665;28;20189;-73
2023/12/20 14:12:53;;;;;;;14.80;1.10;;;;;;;;;;4992269;28;20057;-73
2023/12/20 14:15:25;;;;;;;11.27;1.67;;;;;;;;;;4984405;28;20050;-73
2023/12/20 14:17:52;;;;;;;10.02;1.27;;;;;;;;;;4998742;28;20153;-73
2023/12/20 14:20:20;;;;;;;12.13;0.90;;;;;;;;;;4992763;28;20417;-73
2023/12/20 14:22:47;;;;;;;12.60;1.55;;;;;;;;;;4983325;28;20053;-73
2023/12/20 14:25:15;;;;;;;21.08;1.90;;;;;;;;;;4986439;28;20050;-73
2023/12/20 14:27:43;;;;;;;13.50;1.25;;;;;;;;;;4979461;28;20553;-73
2023/12/20 14:30:13;;;;;;;14.55;1.35;;;;;;;;;;4977604;28;20120;-73
2023/12/20 14:32:42;;;;;;;18.00;1.90;;;;;;;;;;4991807;28;20042;-73
2023/12/20 14:35:10;;;;;;;16.98;1.25;;;;;;;;;;4989904;28;20050;-73
2023/12/20 14:37:38;;;;;;;12.60;2.95;;;;;;;;;;4976067;28;20050;-73